AAY3 KLAS-KBOI
Flight info
| Callsign | AAY3 |
|---|---|
| Flight time | 1h 25m |
| Altitude | 36000 |
| Route | RATPK3 FRNCK CRITO SPATS BROPH SPUUD4 |
| Aircraft | A320/M-SDE3FGHIRWY/LB1 |
Departure
| Time | 2026-05-05 18:30 |
|---|---|
| Airport | Harry Reid International Airport (KLAS) |
Arrival
| Time | 2026-05-05 19:55 |
|---|---|
| Airport | Boise Air Terminal/Gowen Field (KBOI) |
| Time | Latitude | Longitude | Altitude | Speed | Heading |
|---|---|---|---|---|---|
| 2026-05-05 18:05 | 36.08103 | -115.14768 | 2097 ft | 0 kts | 56° |
| 2026-05-05 18:17 | 36.08100 | -115.14773 | 2097 ft | 4 kts | 57° |
| 2026-05-05 18:17 | 36.08087 | -115.14802 | 2097 ft | 4 kts | 74° |
| 2026-05-05 18:17 | 36.08085 | -115.14832 | 2097 ft | 4 kts | 119° |
| 2026-05-05 18:18 | 36.08093 | -115.14844 | 2097 ft | 0 kts | 155° |
| 2026-05-05 18:22 | 36.08080 | -115.14836 | 2097 ft | 7 kts | 155° |
| 2026-05-05 18:22 | 36.08006 | -115.14794 | 2097 ft | 17 kts | 155° |
| 2026-05-05 18:22 | 36.07884 | -115.14723 | 2097 ft | 17 kts | 154° |
| 2026-05-05 18:23 | 36.07846 | -115.14621 | 2096 ft | 13 kts | 95° |
| 2026-05-05 18:23 | 36.07839 | -115.14513 | 2096 ft | 12 kts | 94° |
| 2026-05-05 18:23 | 36.07833 | -115.14422 | 2096 ft | 10 kts | 94° |
| 2026-05-05 18:23 | 36.07829 | -115.14344 | 2096 ft | 10 kts | 94° |
| 2026-05-05 18:24 | 36.07826 | -115.14239 | 2095 ft | 15 kts | 90° |
| 2026-05-05 18:24 | 36.07827 | -115.14085 | 2094 ft | 21 kts | 90° |
| 2026-05-05 18:24 | 36.07827 | -115.13887 | 2093 ft | 25 kts | 89° |
| 2026-05-05 18:24 | 36.07828 | -115.13657 | 2092 ft | 27 kts | 90° |
| 2026-05-05 18:25 | 36.07827 | -115.13428 | 2090 ft | 27 kts | 89° |
| 2026-05-05 18:25 | 36.07828 | -115.13280 | 2088 ft | 25 kts | 90° |
| 2026-05-05 18:25 | 36.07828 | -115.12973 | 2076 ft | 29 kts | 90° |
| 2026-05-05 18:25 | 36.07830 | -115.12722 | 2066 ft | 29 kts | 91° |
| 2026-05-05 18:26 | 36.07827 | -115.12464 | 2058 ft | 30 kts | 90° |
| 2026-05-05 18:26 | 36.07828 | -115.12321 | 2055 ft | 12 kts | 89° |
| 2026-05-05 18:26 | 36.07797 | -115.12223 | 2052 ft | 13 kts | 123° |
| 2026-05-05 18:26 | 36.07752 | -115.12151 | 2049 ft | 0 kts | 130° |
| 2026-05-05 18:27 | 36.07751 | -115.12149 | 2049 ft | 1 kts | 131° |
| 2026-05-05 18:27 | 36.07724 | -115.12123 | 2048 ft | 11 kts | 154° |
| 2026-05-05 18:27 | 36.07648 | -115.12136 | 2048 ft | 11 kts | 219° |
| 2026-05-05 18:27 | 36.07642 | -115.12187 | 2049 ft | 0 kts | 271° |
| 2026-05-05 18:29 | 36.07643 | -115.12204 | 2050 ft | 9 kts | 271° |
| 2026-05-05 18:29 | 36.07642 | -115.12417 | 2055 ft | 52 kts | 269° |
| 2026-05-05 18:29 | 36.07642 | -115.13115 | 2083 ft | 110 kts | 269° |
| 2026-05-05 18:30 | 36.07640 | -115.14278 | 2097 ft | 159 kts | 270° |
| 2026-05-05 18:30 | 36.07630 | -115.15774 | 2440 ft | 171 kts | 267° |
| 2026-05-05 18:30 | 36.07601 | -115.17225 | 3161 ft | 171 kts | 268° |
| 2026-05-05 18:30 | 36.07589 | -115.18722 | 3704 ft | 177 kts | 269° |
| 2026-05-05 18:31 | 36.07595 | -115.20252 | 4254 ft | 180 kts | 268° |
| 2026-05-05 18:31 | 36.07586 | -115.21804 | 4817 ft | 182 kts | 267° |
| 2026-05-05 18:31 | 36.07585 | -115.23447 | 5076 ft | 202 kts | 269° |
| 2026-05-05 18:31 | 36.07603 | -115.25283 | 5256 ft | 227 kts | 272° |
| 2026-05-05 18:32 | 36.08109 | -115.27210 | 5619 ft | 249 kts | 303° |
| 2026-05-05 18:32 | 36.09432 | -115.28598 | 6307 ft | 257 kts | 336° |
| 2026-05-05 18:32 | 36.11173 | -115.29200 | 7061 ft | 261 kts | 347° |
| 2026-05-05 18:32 | 36.12965 | -115.29537 | 7838 ft | 263 kts | 2° |
| 2026-05-05 18:33 | 36.14745 | -115.29068 | 8651 ft | 263 kts | 25° |
| 2026-05-05 18:33 | 36.16283 | -115.27786 | 9172 ft | 276 kts | 48° |
| 2026-05-05 18:33 | 36.17341 | -115.25769 | 9814 ft | 283 kts | 66° |
| 2026-05-05 18:33 | 36.18060 | -115.23493 | 10399 ft | 293 kts | 69° |
| 2026-05-05 18:34 | 36.18827 | -115.21034 | 10609 ft | 316 kts | 70° |
| 2026-05-05 18:34 | 36.19432 | -115.18376 | 10939 ft | 332 kts | 81° |
| 2026-05-05 18:34 | 36.19607 | -115.15463 | 11544 ft | 339 kts | 90° |
| 2026-05-05 18:34 | 36.19609 | -115.13526 | 11994 ft | 342 kts | 90° |
| 2026-05-05 18:35 | 36.19612 | -115.10565 | 12658 ft | 346 kts | 90° |
| 2026-05-05 18:35 | 36.19613 | -115.06585 | 13541 ft | 352 kts | 90° |
| 2026-05-05 18:35 | 36.19614 | -115.03544 | 14157 ft | 355 kts | 90° |
| 2026-05-05 18:35 | 36.19616 | -115.00471 | 14790 ft | 358 kts | 90° |
| 2026-05-05 18:36 | 36.19617 | -114.98457 | 15212 ft | 359 kts | 90° |
| 2026-05-05 18:36 | 36.19618 | -114.95282 | 15862 ft | 362 kts | 90° |
| 2026-05-05 18:36 | 36.19670 | -114.92163 | 16496 ft | 364 kts | 84° |
| 2026-05-05 18:36 | 36.20158 | -114.89090 | 17080 ft | 368 kts | 72° |
| 2026-05-05 18:37 | 36.21154 | -114.86202 | 17685 ft | 370 kts | 61° |
| 2026-05-05 18:37 | 36.22652 | -114.83550 | 18277 ft | 373 kts | 51° |
| 2026-05-05 18:37 | 36.24290 | -114.81101 | 18818 ft | 375 kts | 51° |
| 2026-05-05 18:37 | 36.25957 | -114.78601 | 19338 ft | 378 kts | 51° |
| 2026-05-05 18:38 | 36.27632 | -114.76080 | 19872 ft | 380 kts | 51° |
| 2026-05-05 18:38 | 36.29312 | -114.73540 | 20394 ft | 382 kts | 51° |
| 2026-05-05 18:38 | 36.31005 | -114.70977 | 20911 ft | 385 kts | 51° |
| 2026-05-05 18:38 | 36.32711 | -114.68397 | 21438 ft | 388 kts | 51° |
| 2026-05-05 18:39 | 36.34428 | -114.65804 | 21962 ft | 390 kts | 51° |
| 2026-05-05 18:39 | 36.36200 | -114.63181 | 22461 ft | 393 kts | 47° |
| 2026-05-05 18:39 | 36.38198 | -114.60908 | 22936 ft | 396 kts | 38° |
| 2026-05-05 18:39 | 36.40401 | -114.58840 | 23416 ft | 399 kts | 38° |
| 2026-05-05 18:40 | 36.42623 | -114.56747 | 23820 ft | 401 kts | 38° |
| 2026-05-05 18:40 | 36.44848 | -114.54640 | 24204 ft | 404 kts | 38° |
| 2026-05-05 18:40 | 36.47089 | -114.52512 | 24583 ft | 406 kts | 38° |
| 2026-05-05 18:40 | 36.49336 | -114.50379 | 24949 ft | 408 kts | 38° |
| 2026-05-05 18:41 | 36.51590 | -114.48239 | 25304 ft | 411 kts | 38° |
| 2026-05-05 18:41 | 36.53878 | -114.46069 | 25688 ft | 412 kts | 37° |
| 2026-05-05 18:41 | 36.56287 | -114.44115 | 26043 ft | 414 kts | 33° |
| 2026-05-05 18:41 | 36.58744 | -114.42212 | 26390 ft | 416 kts | 33° |
| 2026-05-05 18:42 | 36.61202 | -114.40308 | 26727 ft | 418 kts | 32° |
| 2026-05-05 18:42 | 36.63680 | -114.38388 | 27058 ft | 420 kts | 32° |
| 2026-05-05 18:42 | 36.66176 | -114.36456 | 27384 ft | 423 kts | 32° |
| 2026-05-05 18:42 | 36.68680 | -114.34520 | 27701 ft | 425 kts | 32° |
| 2026-05-05 18:43 | 36.71192 | -114.32574 | 28019 ft | 427 kts | 32° |
| 2026-05-05 18:43 | 36.73710 | -114.30617 | 28327 ft | 429 kts | 32° |
| 2026-05-05 18:43 | 36.76247 | -114.28641 | 28630 ft | 430 kts | 32° |
| 2026-05-05 18:43 | 36.78794 | -114.26655 | 28903 ft | 432 kts | 33° |
| 2026-05-05 18:44 | 36.81342 | -114.24671 | 29289 ft | 432 kts | 33° |
| 2026-05-05 18:44 | 36.83891 | -114.22687 | 29605 ft | 432 kts | 33° |
| 2026-05-05 18:44 | 36.86448 | -114.20691 | 29887 ft | 434 kts | 33° |
| 2026-05-05 18:44 | 36.89008 | -114.18690 | 30110 ft | 435 kts | 33° |
| 2026-05-05 18:45 | 36.91581 | -114.16677 | 30294 ft | 437 kts | 33° |
| 2026-05-05 18:45 | 36.94168 | -114.14654 | 30468 ft | 440 kts | 33° |
| 2026-05-05 18:45 | 36.96765 | -114.12622 | 30696 ft | 440 kts | 33° |
| 2026-05-05 18:45 | 36.99363 | -114.10585 | 30949 ft | 441 kts | 33° |
| 2026-05-05 18:46 | 37.01961 | -114.08546 | 31194 ft | 441 kts | 33° |
| 2026-05-05 18:46 | 37.04553 | -114.06513 | 31433 ft | 441 kts | 33° |
| 2026-05-05 18:46 | 37.07155 | -114.04471 | 31713 ft | 440 kts | 33° |
| 2026-05-05 18:46 | 37.09744 | -114.02439 | 32005 ft | 439 kts | 33° |
| 2026-05-05 18:47 | 37.12333 | -114.00401 | 32260 ft | 439 kts | 33° |
| 2026-05-05 18:47 | 37.14926 | -113.98356 | 32508 ft | 440 kts | 33° |
| 2026-05-05 18:47 | 37.17503 | -113.96324 | 32680 ft | 433 kts | 33° |
| 2026-05-05 18:47 | 37.20000 | -113.94356 | 32805 ft | 418 kts | 33° |
| 2026-05-05 18:48 | 37.22473 | -113.92409 | 32935 ft | 422 kts | 33° |
| 2026-05-05 18:48 | 37.24973 | -113.90439 | 33069 ft | 427 kts | 33° |
| 2026-05-05 18:48 | 37.27501 | -113.88443 | 33205 ft | 431 kts | 33° |
| 2026-05-05 18:48 | 37.30054 | -113.86424 | 33342 ft | 435 kts | 33° |
| 2026-05-05 18:49 | 37.32618 | -113.84391 | 33483 ft | 437 kts | 33° |
| 2026-05-05 18:49 | 37.35182 | -113.82356 | 33822 ft | 435 kts | 33° |
| 2026-05-05 18:49 | 37.37740 | -113.80325 | 34076 ft | 434 kts | 33° |
| 2026-05-05 18:49 | 37.40300 | -113.78295 | 34270 ft | 435 kts | 33° |
| 2026-05-05 18:50 | 37.42860 | -113.76266 | 34444 ft | 436 kts | 33° |
| 2026-05-05 18:50 | 37.45399 | -113.74251 | 34610 ft | 437 kts | 32° |
| 2026-05-05 18:50 | 37.48010 | -113.72174 | 34727 ft | 440 kts | 32° |
| 2026-05-05 18:50 | 37.50609 | -113.70107 | 34859 ft | 442 kts | 32° |
| 2026-05-05 18:51 | 37.53172 | -113.68067 | 35021 ft | 443 kts | 32° |
| 2026-05-05 18:51 | 37.55812 | -113.65961 | 35180 ft | 444 kts | 32° |
| 2026-05-05 18:51 | 37.58390 | -113.63902 | 35314 ft | 445 kts | 33° |
| 2026-05-05 18:51 | 37.60995 | -113.61834 | 35592 ft | 441 kts | 30° |
| 2026-05-05 18:52 | 37.63790 | -113.60160 | 35788 ft | 441 kts | 20° |
| 2026-05-05 18:52 | 37.66721 | -113.59147 | 35854 ft | 442 kts | 11° |
| 2026-05-05 18:52 | 37.69783 | -113.58773 | 35849 ft | 443 kts | 359° |
| 2026-05-05 18:52 | 37.72839 | -113.59224 | 35849 ft | 444 kts | 347° |
| 2026-05-05 18:53 | 37.75751 | -113.60531 | 35849 ft | 446 kts | 335° |
| 2026-05-05 18:53 | 37.78592 | -113.62262 | 35848 ft | 447 kts | 335° |
| 2026-05-05 18:53 | 37.84154 | -113.65644 | 35841 ft | 445 kts | 336° |
| 2026-05-05 18:54 | 37.89749 | -113.69000 | 35841 ft | 445 kts | 336° |
| 2026-05-05 18:54 | 37.95375 | -113.72374 | 35839 ft | 445 kts | 336° |
| 2026-05-05 18:55 | 38.00967 | -113.75735 | 35840 ft | 444 kts | 338° |
| 2026-05-05 18:55 | 38.06548 | -113.79092 | 35852 ft | 444 kts | 338° |
| 2026-05-05 18:56 | 38.12081 | -113.82428 | 35849 ft | 443 kts | 338° |
| 2026-05-05 18:56 | 38.17681 | -113.85818 | 35844 ft | 443 kts | 338° |
| 2026-05-05 18:57 | 38.23239 | -113.89188 | 35849 ft | 442 kts | 338° |
| 2026-05-05 18:57 | 38.28787 | -113.92550 | 35847 ft | 442 kts | 338° |
| 2026-05-05 18:58 | 38.34299 | -113.95898 | 35845 ft | 442 kts | 337° |
| 2026-05-05 18:58 | 38.39844 | -113.99280 | 35833 ft | 442 kts | 338° |
| 2026-05-05 18:59 | 38.45378 | -114.02660 | 35841 ft | 441 kts | 338° |
| 2026-05-05 18:59 | 38.50913 | -114.06038 | 35843 ft | 441 kts | 338° |
| 2026-05-05 19:00 | 38.56436 | -114.09415 | 35824 ft | 440 kts | 338° |
| 2026-05-05 19:00 | 38.61960 | -114.12798 | 35834 ft | 439 kts | 339° |
| 2026-05-05 19:01 | 38.67467 | -114.16179 | 35844 ft | 439 kts | 338° |
| 2026-05-05 19:01 | 38.72969 | -114.19566 | 35838 ft | 438 kts | 339° |
| 2026-05-05 19:02 | 38.78458 | -114.22942 | 35820 ft | 438 kts | 339° |
| 2026-05-05 19:02 | 38.83943 | -114.26321 | 35829 ft | 437 kts | 339° |
| 2026-05-05 19:03 | 38.89409 | -114.29705 | 35830 ft | 436 kts | 339° |
| 2026-05-05 19:03 | 38.94866 | -114.33087 | 35813 ft | 435 kts | 339° |
| 2026-05-05 19:04 | 39.00297 | -114.36459 | 35828 ft | 434 kts | 340° |
| 2026-05-05 19:04 | 39.05731 | -114.39828 | 35839 ft | 433 kts | 340° |
| 2026-05-05 19:05 | 39.11156 | -114.43203 | 35836 ft | 432 kts | 340° |
| 2026-05-05 19:05 | 39.16562 | -114.46579 | 35858 ft | 431 kts | 340° |
| 2026-05-05 19:06 | 39.21949 | -114.49953 | 35890 ft | 430 kts | 340° |
| 2026-05-05 19:06 | 39.27328 | -114.53302 | 35914 ft | 427 kts | 343° |
| 2026-05-05 19:07 | 39.32961 | -114.55113 | 35914 ft | 411 kts | 2° |
| 2026-05-05 19:07 | 39.38644 | -114.55335 | 35845 ft | 408 kts | 3° |
| 2026-05-05 19:08 | 39.44277 | -114.55568 | 35852 ft | 407 kts | 3° |
| 2026-05-05 19:08 | 39.49974 | -114.55803 | 35851 ft | 407 kts | 3° |
| 2026-05-05 19:09 | 39.55625 | -114.56034 | 35853 ft | 406 kts | 3° |
| 2026-05-05 19:09 | 39.61265 | -114.56269 | 35868 ft | 405 kts | 3° |
| 2026-05-05 19:10 | 39.66849 | -114.56498 | 35867 ft | 404 kts | 3° |
| 2026-05-05 19:10 | 39.72513 | -114.56731 | 35854 ft | 404 kts | 3° |
| 2026-05-05 19:11 | 39.78084 | -114.56963 | 35871 ft | 403 kts | 3° |
| 2026-05-05 19:11 | 39.83685 | -114.57189 | 35872 ft | 402 kts | 3° |
| 2026-05-05 19:12 | 39.89274 | -114.57415 | 35880 ft | 402 kts | 3° |
| 2026-05-05 19:12 | 39.94859 | -114.57648 | 35874 ft | 401 kts | 3° |
| 2026-05-05 19:13 | 40.00428 | -114.57874 | 35878 ft | 400 kts | 3° |
| 2026-05-05 19:13 | 40.05993 | -114.58100 | 35879 ft | 400 kts | 3° |
| 2026-05-05 19:14 | 40.11537 | -114.58332 | 35881 ft | 399 kts | 3° |
| 2026-05-05 19:14 | 40.17091 | -114.58564 | 35879 ft | 399 kts | 3° |
| 2026-05-05 19:15 | 40.22633 | -114.58788 | 35878 ft | 399 kts | 3° |
| 2026-05-05 19:15 | 40.28183 | -114.59015 | 35877 ft | 399 kts | 3° |
| 2026-05-05 19:16 | 40.33721 | -114.59246 | 35863 ft | 398 kts | 2° |
| 2026-05-05 19:16 | 40.39260 | -114.59475 | 35871 ft | 398 kts | 2° |
| 2026-05-05 19:17 | 40.44793 | -114.59710 | 35868 ft | 397 kts | 2° |
| 2026-05-05 19:17 | 40.50318 | -114.59946 | 35864 ft | 397 kts | 2° |
| 2026-05-05 19:18 | 40.55830 | -114.60175 | 35861 ft | 396 kts | 2° |
| 2026-05-05 19:18 | 40.61345 | -114.60406 | 35862 ft | 396 kts | 2° |
| 2026-05-05 19:19 | 40.65919 | -114.60603 | 35858 ft | 396 kts | 2° |
| 2026-05-05 19:19 | 40.71412 | -114.60831 | 35859 ft | 395 kts | 2° |
| 2026-05-05 19:20 | 40.76857 | -114.61140 | 35855 ft | 396 kts | 360° |
| 2026-05-05 19:20 | 40.82388 | -114.61861 | 35858 ft | 397 kts | 358° |
| 2026-05-05 19:21 | 40.87879 | -114.62689 | 35855 ft | 396 kts | 358° |
| 2026-05-05 19:21 | 40.93356 | -114.63456 | 35844 ft | 396 kts | 358° |
| 2026-05-05 19:22 | 40.98841 | -114.64165 | 35840 ft | 396 kts | 359° |
| 2026-05-05 19:22 | 41.04323 | -114.64866 | 35843 ft | 396 kts | 359° |
| 2026-05-05 19:23 | 41.09801 | -114.65587 | 35843 ft | 396 kts | 358° |
| 2026-05-05 19:23 | 41.15287 | -114.66314 | 35836 ft | 396 kts | 358° |
| 2026-05-05 19:24 | 41.20762 | -114.67042 | 35834 ft | 396 kts | 358° |
| 2026-05-05 19:24 | 41.26244 | -114.67765 | 35833 ft | 395 kts | 358° |
| 2026-05-05 19:25 | 41.31715 | -114.68494 | 35830 ft | 395 kts | 358° |
| 2026-05-05 19:25 | 41.37184 | -114.69227 | 35833 ft | 395 kts | 358° |
| 2026-05-05 19:26 | 41.42655 | -114.69955 | 35825 ft | 395 kts | 358° |
| 2026-05-05 19:26 | 41.48107 | -114.70679 | 35823 ft | 394 kts | 358° |
| 2026-05-05 19:27 | 41.53575 | -114.71410 | 35826 ft | 394 kts | 358° |
| 2026-05-05 19:27 | 41.59033 | -114.72142 | 35825 ft | 394 kts | 358° |
| 2026-05-05 19:28 | 41.64488 | -114.72869 | 35825 ft | 394 kts | 358° |
| 2026-05-05 19:28 | 41.69941 | -114.73596 | 35820 ft | 393 kts | 358° |
| 2026-05-05 19:29 | 41.75383 | -114.74327 | 35827 ft | 393 kts | 358° |
| 2026-05-05 19:29 | 41.80819 | -114.75057 | 35836 ft | 392 kts | 358° |
| 2026-05-05 19:30 | 41.86246 | -114.75793 | 35838 ft | 392 kts | 358° |
| 2026-05-05 19:30 | 41.91671 | -114.76533 | 35848 ft | 391 kts | 358° |
| 2026-05-05 19:31 | 41.97078 | -114.77261 | 35847 ft | 390 kts | 358° |
| 2026-05-05 19:31 | 42.02480 | -114.77993 | 35846 ft | 390 kts | 357° |
| 2026-05-05 19:32 | 42.07867 | -114.78726 | 35845 ft | 389 kts | 358° |
| 2026-05-05 19:32 | 42.13261 | -114.79456 | 35842 ft | 389 kts | 358° |
| 2026-05-05 19:33 | 42.18647 | -114.80194 | 35840 ft | 389 kts | 357° |
| 2026-05-05 19:33 | 42.24038 | -114.80929 | 35854 ft | 389 kts | 357° |
| 2026-05-05 19:34 | 42.29409 | -114.81666 | 35868 ft | 388 kts | 357° |
| 2026-05-05 19:35 | 42.37438 | -114.82772 | 34997 ft | 387 kts | 357° |
| 2026-05-05 19:35 | 42.40088 | -114.83133 | 34268 ft | 388 kts | 357° |
| 2026-05-05 19:35 | 42.42809 | -114.83504 | 33438 ft | 389 kts | 357° |
| 2026-05-05 19:35 | 42.45461 | -114.83867 | 32940 ft | 382 kts | 357° |
| 2026-05-05 19:36 | 42.48072 | -114.84224 | 32459 ft | 376 kts | 357° |
| 2026-05-05 19:36 | 42.50684 | -114.84583 | 31966 ft | 370 kts | 357° |
| 2026-05-05 19:36 | 42.53198 | -114.84931 | 31491 ft | 366 kts | 357° |
| 2026-05-05 19:36 | 42.55716 | -114.85285 | 31022 ft | 361 kts | 357° |
| 2026-05-05 19:37 | 42.58201 | -114.85633 | 30560 ft | 357 kts | 356° |
| 2026-05-05 19:37 | 42.60666 | -114.85975 | 30089 ft | 354 kts | 356° |
| 2026-05-05 19:37 | 42.63102 | -114.86311 | 29604 ft | 350 kts | 356° |
| 2026-05-05 19:37 | 42.65512 | -114.86642 | 29157 ft | 346 kts | 356° |
| 2026-05-05 19:38 | 42.67884 | -114.86968 | 28721 ft | 341 kts | 355° |
| 2026-05-05 19:38 | 42.70204 | -114.87618 | 28277 ft | 341 kts | 345° |
| 2026-05-05 19:38 | 42.72388 | -114.88915 | 27765 ft | 345 kts | 334° |
| 2026-05-05 19:38 | 42.74350 | -114.90828 | 27250 ft | 351 kts | 323° |
| 2026-05-05 19:39 | 42.76065 | -114.93204 | 26761 ft | 353 kts | 320° |
| 2026-05-05 19:39 | 42.77750 | -114.95625 | 26261 ft | 352 kts | 319° |
| 2026-05-05 19:39 | 42.79428 | -114.98034 | 25789 ft | 350 kts | 319° |
| 2026-05-05 19:39 | 42.81103 | -115.00445 | 25319 ft | 349 kts | 319° |
| 2026-05-05 19:40 | 42.82767 | -115.02840 | 24861 ft | 347 kts | 319° |
| 2026-05-05 19:40 | 42.84425 | -115.05226 | 24403 ft | 346 kts | 319° |
| 2026-05-05 19:40 | 42.86079 | -115.07605 | 23940 ft | 345 kts | 319° |
| 2026-05-05 19:40 | 42.87720 | -115.09969 | 23494 ft | 344 kts | 319° |
| 2026-05-05 19:41 | 42.89367 | -115.12345 | 23007 ft | 344 kts | 318° |
| 2026-05-05 19:41 | 42.91001 | -115.14703 | 22525 ft | 342 kts | 318° |
| 2026-05-05 19:41 | 42.92623 | -115.17043 | 22052 ft | 339 kts | 318° |
| 2026-05-05 19:41 | 42.94244 | -115.19388 | 21601 ft | 337 kts | 318° |
| 2026-05-05 19:42 | 42.95845 | -115.21709 | 21140 ft | 335 kts | 317° |
| 2026-05-05 19:42 | 42.97441 | -115.24029 | 20676 ft | 335 kts | 317° |
| 2026-05-05 19:42 | 42.99012 | -115.26317 | 20220 ft | 333 kts | 317° |
| 2026-05-05 19:42 | 43.00617 | -115.28655 | 19755 ft | 333 kts | 317° |
| 2026-05-05 19:43 | 43.02198 | -115.30956 | 19300 ft | 332 kts | 317° |
| 2026-05-05 19:43 | 43.03777 | -115.33251 | 18853 ft | 331 kts | 316° |
| 2026-05-05 19:43 | 43.05353 | -115.35546 | 18399 ft | 331 kts | 316° |
| 2026-05-05 19:43 | 43.06910 | -115.37818 | 17914 ft | 331 kts | 316° |
| 2026-05-05 19:44 | 43.08498 | -115.40137 | 17507 ft | 328 kts | 316° |
| 2026-05-05 19:44 | 43.10018 | -115.42362 | 17195 ft | 323 kts | 316° |
| 2026-05-05 19:44 | 43.11543 | -115.44602 | 16775 ft | 321 kts | 316° |
| 2026-05-05 19:44 | 43.13068 | -115.46836 | 16353 ft | 320 kts | 316° |
| 2026-05-05 19:45 | 43.14583 | -115.49056 | 15938 ft | 319 kts | 316° |
| 2026-05-05 19:45 | 43.16096 | -115.51272 | 15519 ft | 318 kts | 316° |
| 2026-05-05 19:45 | 43.17607 | -115.53478 | 15105 ft | 317 kts | 316° |
| 2026-05-05 19:45 | 43.19116 | -115.55685 | 14689 ft | 317 kts | 316° |
| 2026-05-05 19:46 | 43.20606 | -115.57866 | 14474 ft | 309 kts | 316° |
| 2026-05-05 19:46 | 43.22049 | -115.59982 | 14272 ft | 302 kts | 317° |
| 2026-05-05 19:46 | 43.23472 | -115.62074 | 14126 ft | 299 kts | 317° |
| 2026-05-05 19:46 | 43.24903 | -115.64175 | 13698 ft | 301 kts | 317° |
| 2026-05-05 19:47 | 43.26328 | -115.66265 | 13359 ft | 298 kts | 317° |
| 2026-05-05 19:47 | 43.27746 | -115.68324 | 12998 ft | 297 kts | 318° |
| 2026-05-05 19:47 | 43.29218 | -115.70303 | 12621 ft | 294 kts | 320° |
| 2026-05-05 19:47 | 43.30707 | -115.72206 | 12240 ft | 293 kts | 321° |
| 2026-05-05 19:48 | 43.32204 | -115.74090 | 11884 ft | 291 kts | 321° |
| 2026-05-05 19:48 | 43.33688 | -115.75962 | 11492 ft | 287 kts | 321° |
| 2026-05-05 19:48 | 43.35138 | -115.77803 | 11040 ft | 277 kts | 321° |
| 2026-05-05 19:48 | 43.36515 | -115.79570 | 10688 ft | 266 kts | 321° |
| 2026-05-05 19:49 | 43.37845 | -115.81281 | 10204 ft | 261 kts | 318° |
| 2026-05-05 19:49 | 43.38645 | -115.82519 | 9848 ft | 260 kts | 313° |
| 2026-05-05 19:49 | 43.40172 | -115.85087 | 9039 ft | 258 kts | 312° |
| 2026-05-05 19:49 | 43.41304 | -115.86992 | 8442 ft | 255 kts | 312° |
| 2026-05-05 19:50 | 43.42415 | -115.88864 | 7885 ft | 252 kts | 311° |
| 2026-05-05 19:50 | 43.43510 | -115.90709 | 7382 ft | 246 kts | 310° |
| 2026-05-05 19:50 | 43.44580 | -115.92537 | 6807 ft | 245 kts | 308° |
| 2026-05-05 19:50 | 43.45568 | -115.94398 | 6468 ft | 234 kts | 306° |
| 2026-05-05 19:51 | 43.46459 | -115.96158 | 6409 ft | 213 kts | 304° |
| 2026-05-05 19:51 | 43.47275 | -115.97788 | 6334 ft | 203 kts | 304° |
| 2026-05-05 19:51 | 43.48064 | -115.99363 | 6253 ft | 197 kts | 304° |
| 2026-05-05 19:51 | 43.48842 | -116.00914 | 6175 ft | 198 kts | 304° |
| 2026-05-05 19:52 | 43.49579 | -116.02505 | 6077 ft | 197 kts | 295° |
| 2026-05-05 19:52 | 43.50165 | -116.04227 | 5772 ft | 199 kts | 295° |
| 2026-05-05 19:52 | 43.50748 | -116.05942 | 5498 ft | 197 kts | 296° |
| 2026-05-05 19:52 | 43.51324 | -116.07627 | 5212 ft | 190 kts | 296° |
| 2026-05-05 19:53 | 43.51867 | -116.09214 | 4945 ft | 179 kts | 297° |
| 2026-05-05 19:53 | 43.52387 | -116.10732 | 4695 ft | 171 kts | 295° |
| 2026-05-05 19:53 | 43.52885 | -116.12190 | 4436 ft | 165 kts | 295° |
| 2026-05-05 19:53 | 43.53357 | -116.13570 | 4216 ft | 153 kts | 296° |
| 2026-05-05 19:54 | 43.53800 | -116.14863 | 3984 ft | 147 kts | 296° |
| 2026-05-05 19:54 | 43.54230 | -116.16131 | 3795 ft | 144 kts | 295° |
| 2026-05-05 19:54 | 43.54648 | -116.17374 | 3610 ft | 144 kts | 297° |
| 2026-05-05 19:54 | 43.55077 | -116.18613 | 3332 ft | 142 kts | 298° |
| 2026-05-05 19:55 | 43.55512 | -116.19858 | 3131 ft | 146 kts | 297° |
| 2026-05-05 19:55 | 43.55922 | -116.21097 | 2924 ft | 141 kts | 296° |
| 2026-05-05 19:55 | 43.56318 | -116.22247 | 2880 ft | 103 kts | 295° |
| 2026-05-05 19:55 | 43.56500 | -116.22784 | 2882 ft | 36 kts | 295° |
| 2026-05-05 19:56 | 43.56600 | -116.23074 | 2883 ft | 22 kts | 296° |
| 2026-05-05 19:56 | 43.56668 | -116.23176 | 2881 ft | 16 kts | 12° |
| 2026-05-05 19:56 | 43.56773 | -116.23110 | 2883 ft | 18 kts | 25° |
| 2026-05-05 19:56 | 43.56875 | -116.23045 | 2880 ft | 14 kts | 30° |
| 2026-05-05 19:57 | 43.56886 | -116.22942 | 2881 ft | 11 kts | 116° |
| 2026-05-05 19:57 | 43.56864 | -116.22879 | 2881 ft | 10 kts | 115° |
| 2026-05-05 19:57 | 43.56827 | -116.22769 | 2881 ft | 11 kts | 115° |
| 2026-05-05 19:57 | 43.56789 | -116.22656 | 2881 ft | 15 kts | 114° |
| 2026-05-05 19:58 | 43.56740 | -116.22512 | 2881 ft | 16 kts | 115° |
| 2026-05-05 19:58 | 43.56696 | -116.22385 | 2881 ft | 14 kts | 115° |
| 2026-05-05 19:58 | 43.56658 | -116.22274 | 2881 ft | 12 kts | 115° |
| 2026-05-05 19:58 | 43.56648 | -116.22180 | 2881 ft | 9 kts | 40° |
| 2026-05-05 19:59 | 43.56698 | -116.22147 | 2881 ft | 7 kts | 25° |
| 2026-05-05 19:59 | 43.56735 | -116.22124 | 2881 ft | 5 kts | 25° |
| 2026-05-05 19:59 | 43.56741 | -116.22120 | 2881 ft | 0 kts | 25° |
| 2026-05-05 20:04 | 43.54766 | -116.17713 | 3499 ft | 143 kts | 297° |
| 2026-05-05 20:04 | 43.54983 | -116.18342 | 3382 ft | 142 kts | 297° |